createdAt,value
2023-01-13T00:04:59.332Z,12.48
2023-01-13T00:10:01.184Z,12.25
2023-01-13T00:15:02.862Z,11.67
2023-01-13T00:20:05.164Z,12.01
2023-01-13T00:25:07.311Z,12.24
2023-01-13T00:30:09.471Z,12.52
2023-01-13T00:35:11.104Z,13.06
2023-01-13T00:40:12.999Z,11.73
2023-01-13T00:45:14.673Z,11.88
2023-01-13T00:50:16.554Z,11.56
2023-01-13T00:55:18.123Z,11.49
2023-01-13T01:00:20.049Z,11.34
2023-01-13T01:05:21.787Z,11.81
2023-01-13T01:10:23.495Z,12.17
2023-01-13T01:15:25.244Z,11.26
2023-01-13T01:20:26.858Z,10.27
2023-01-13T01:25:28.444Z,11.42
2023-01-13T01:30:30.639Z,9.93
2023-01-13T01:35:32.228Z,10.44
2023-01-13T01:40:33.947Z,10.74
2023-01-13T01:45:35.755Z,11.70
2023-01-13T01:50:39.273Z,10.25
2023-01-13T01:55:41.416Z,11.91
2023-01-13T02:00:43.178Z,12.04
2023-01-13T02:05:44.886Z,10.74
2023-01-13T02:10:53.515Z,12.14
2023-01-13T02:16:12.096Z,9.45
2023-01-13T02:21:25.500Z,11.74
2023-01-13T02:26:59.185Z,10.63
2023-01-13T02:32:12.812Z,11.41
2023-01-13T02:37:27.595Z,12.37
2023-01-13T02:42:52.410Z,11.52
2023-01-13T02:47:56.858Z,12.62
2023-01-13T02:53:03.872Z,11.44
2023-01-13T02:58:08.458Z,10.91
2023-01-13T03:03:10.039Z,10.10
2023-01-13T03:08:17.878Z,11.15
2023-01-13T03:13:53.689Z,12.16
2023-01-13T03:19:13.616Z,9.83
2023-01-13T03:24:28.875Z,10.35
2023-01-13T03:29:41.407Z,11.76
2023-01-13T03:34:49.209Z,12.03
2023-01-13T03:39:57.449Z,11.70
2023-01-13T03:45:14.616Z,12.48
2023-01-13T03:50:24.423Z,12.59
2023-01-13T03:55:35.708Z,10.96
2023-01-13T04:00:44.137Z,11.21
2023-01-13T04:05:51.494Z,11.25
2023-01-13T04:10:55.985Z,11.41
2023-01-13T04:15:59.825Z,12.80
2023-01-13T04:21:02.195Z,12.53
2023-01-13T04:26:04.955Z,10.33
2023-01-13T04:31:06.581Z,11.42
2023-01-13T04:36:08.527Z,12.21
2023-01-13T04:41:10.187Z,11.67
2023-01-13T04:46:11.980Z,11.05
2023-01-13T04:51:13.572Z,10.89
2023-01-13T04:56:15.134Z,10.04
2023-01-13T05:01:16.854Z,10.28
2023-01-13T05:06:18.741Z,11.87
2023-01-13T05:11:39.003Z,11.87
2023-01-13T05:16:59.263Z,10.89
2023-01-13T05:22:20.351Z,11.04
2023-01-13T05:27:22.220Z,11.69
2023-01-13T05:32:24.756Z,11.00
2023-01-13T05:37:27.741Z,10.45
2023-01-13T05:42:48.001Z,11.99
2023-01-13T05:47:50.140Z,12.06
2023-01-13T05:52:51.806Z,10.17
2023-01-13T05:57:53.358Z,12.21
2023-01-13T06:02:55.054Z,11.12
2023-01-13T06:08:01.405Z,11.38
2023-01-13T06:13:04.362Z,9.70
2023-01-13T06:18:06.092Z,13.01
2023-01-13T06:23:09.792Z,11.48
2023-01-13T06:28:11.429Z,11.42
2023-01-13T06:33:24.230Z,12.16
2023-01-13T06:38:28.814Z,12.25
2023-01-13T06:43:30.523Z,10.39
2023-01-13T06:48:35.066Z,11.36
2023-01-13T06:53:36.730Z,11.43
2023-01-13T06:58:38.443Z,10.58
2023-01-13T07:03:40.797Z,11.35
2023-01-13T07:08:42.456Z,12.85
2023-01-13T07:14:02.645Z,12.21
2023-01-13T07:19:04.327Z,12.48
2023-01-13T07:24:06.221Z,13.32
2023-01-13T07:29:07.910Z,12.98
2023-01-13T07:34:09.556Z,11.16
2023-01-13T07:39:11.234Z,11.16
2023-01-13T07:44:12.960Z,11.07
2023-01-13T07:49:14.653Z,9.45
2023-01-13T07:54:17.155Z,11.40
2023-01-13T07:59:18.734Z,11.67
2023-01-13T08:04:20.403Z,11.21
2023-01-13T08:09:22.041Z,11.63
2023-01-13T08:14:23.638Z,11.25
2023-01-13T08:19:25.310Z,11.42
2023-01-13T08:24:26.937Z,11.94
2023-01-13T08:29:28.552Z,12.45
2023-01-13T08:34:30.196Z,12.51
2023-01-13T08:39:31.844Z,12.04
2023-01-13T08:44:33.508Z,11.99
2023-01-13T08:49:35.166Z,12.32
2023-01-13T08:54:39.225Z,13.96
2023-01-13T08:59:41.229Z,12.59
2023-01-13T09:04:43.008Z,12.91
2023-01-13T09:09:45.058Z,12.88
2023-01-13T09:14:47.060Z,12.10
2023-01-13T09:19:49.507Z,10.19
2023-01-13T09:24:51.193Z,12.33
2023-01-13T09:29:52.928Z,11.38
2023-01-13T09:35:00.641Z,12.71
2023-01-13T09:40:04.922Z,12.97
2023-01-13T09:45:17.626Z,13.60
2023-01-13T09:50:44.973Z,13.22
2023-01-13T09:55:46.935Z,12.25
2023-01-13T10:01:03.833Z,11.60
2023-01-13T10:06:30.789Z,12.89
2023-01-13T10:11:59.181Z,11.22
2023-01-13T10:17:15.963Z,11.28
2023-01-13T10:22:38.792Z,12.87
2023-01-13T10:27:40.941Z,13.42
2023-01-13T10:32:46.409Z,13.23
2023-01-13T10:37:57.361Z,13.31
2023-01-13T10:43:08.710Z,12.82
2023-01-13T10:48:15.056Z,12.67
2023-01-13T10:53:25.497Z,14.06
2023-01-13T10:58:28.217Z,12.22
2023-01-13T11:06:31.157Z,8.70
2023-01-13T11:11:45.589Z,9.15
2023-01-13T11:16:53.874Z,8.41
2023-01-13T11:22:07.468Z,9.27
2023-01-13T11:27:14.551Z,8.25
2023-01-13T11:32:21.863Z,9.73
2023-01-13T11:37:28.579Z,10.38
2023-01-13T11:42:55.955Z,7.78
2023-01-13T11:48:00.500Z,7.06
2023-01-13T11:53:05.507Z,8.48
2023-01-13T11:58:07.032Z,8.03
2023-01-13T12:03:30.940Z,7.71
2023-01-13T12:08:58.104Z,8.11
2023-01-13T12:14:20.320Z,9.06
2023-01-13T12:19:28.206Z,9.99
2023-01-13T12:24:35.744Z,7.46
2023-01-13T12:29:38.934Z,8.10
2023-01-13T12:35:00.122Z,8.28
2023-01-13T12:40:25.577Z,8.79
2023-01-13T12:45:30.293Z,8.10
2023-01-13T12:50:32.015Z,7.52
2023-01-13T12:55:36.093Z,7.99
2023-01-13T13:00:56.923Z,7.73
2023-01-13T13:06:03.657Z,8.56
2023-01-13T13:11:37.122Z,8.15
2023-01-13T13:16:52.591Z,9.71
2023-01-13T13:22:12.421Z,9.07
2023-01-13T13:27:18.093Z,9.94
2023-01-13T13:32:22.297Z,9.75
2023-01-13T13:37:59.065Z,9.72
2023-01-13T13:43:19.231Z,10.43
2023-01-13T13:48:27.153Z,10.85
2023-01-13T13:53:34.506Z,10.35
2023-01-13T13:58:37.292Z,10.15
2023-01-13T14:03:40.312Z,9.81
2023-01-13T14:08:50.198Z,9.14
2023-01-13T14:14:06.504Z,10.02
2023-01-13T14:19:26.401Z,10.43
2023-01-13T14:24:28.796Z,9.95
2023-01-13T14:29:30.526Z,9.80
2023-01-13T14:34:33.503Z,9.70
2023-01-13T14:39:41.075Z,9.48
2023-01-13T14:44:47.908Z,9.90
2023-01-13T14:50:22.021Z,9.91
2023-01-13T14:55:27.185Z,9.57
2023-01-13T15:00:28.807Z,9.44
2023-01-13T15:05:36.000Z,8.81
2023-01-13T15:10:55.440Z,6.88
2023-01-13T15:15:59.396Z,7.18
2023-01-13T15:21:01.178Z,9.38
2023-01-13T15:26:03.453Z,8.33
2023-01-13T15:31:05.305Z,9.44
2023-01-13T15:36:21.014Z,9.54
2023-01-13T15:41:41.944Z,9.07
2023-01-13T15:46:44.321Z,8.77
2023-01-13T15:51:46.043Z,8.05
2023-01-13T15:56:48.407Z,8.15
2023-01-13T16:01:50.293Z,8.65
2023-01-13T16:06:52.041Z,7.64
2023-01-13T16:11:53.905Z,9.08
2023-01-13T16:16:55.643Z,7.46
2023-01-13T16:21:59.829Z,8.33
2023-01-13T16:27:01.532Z,8.64
2023-01-13T16:32:03.219Z,8.22
2023-01-13T16:37:06.579Z,8.58
2023-01-13T16:42:08.221Z,8.95
2023-01-13T16:47:14.664Z,8.28
2023-01-13T16:52:16.340Z,8.46
2023-01-13T16:57:18.092Z,9.15
2023-01-13T17:02:21.055Z,8.49
2023-01-13T17:07:22.914Z,8.15
2023-01-13T17:12:24.660Z,7.87
2023-01-13T17:17:28.099Z,8.73
2023-01-13T17:22:30.905Z,9.33
2023-01-13T17:27:32.692Z,10.00
2023-01-13T17:32:34.440Z,9.06
2023-01-13T17:37:36.162Z,9.27
2023-01-13T17:42:37.773Z,8.48
2023-01-13T17:47:39.465Z,8.54
2023-01-13T17:52:41.141Z,8.18
2023-01-13T17:57:42.757Z,9.98
2023-01-13T18:02:44.436Z,9.79
2023-01-13T18:07:46.146Z,9.38
2023-01-13T18:12:47.748Z,9.53
2023-01-13T18:17:49.425Z,7.89
2023-01-13T18:23:09.672Z,9.01
2023-01-13T18:28:11.449Z,8.47
2023-01-13T18:33:13.165Z,8.43
2023-01-13T18:38:24.468Z,8.46
2023-01-13T18:43:26.188Z,8.75
2023-01-13T18:48:27.914Z,8.67
2023-01-13T18:53:29.717Z,6.84
2023-01-13T18:58:33.156Z,8.34
2023-01-13T19:03:34.898Z,8.70
2023-01-13T19:08:36.790Z,7.35
2023-01-13T19:13:38.467Z,7.54
2023-01-13T19:18:40.266Z,7.19
2023-01-13T19:23:42.052Z,7.29
2023-01-13T19:28:43.983Z,7.73
2023-01-13T19:33:45.735Z,8.12
2023-01-13T19:38:47.477Z,8.26
2023-01-13T19:44:07.703Z,6.83
2023-01-13T19:49:10.477Z,7.54
2023-01-13T19:54:12.130Z,9.09
2023-01-13T19:59:13.898Z,8.61
2023-01-13T20:04:18.429Z,8.52
2023-01-13T20:09:20.171Z,9.44
2023-01-13T20:14:23.476Z,8.43
2023-01-13T20:19:25.113Z,9.50
2023-01-13T20:24:26.843Z,8.81
2023-01-13T20:29:28.852Z,9.06
2023-01-13T20:34:30.563Z,8.54
2023-01-13T20:39:33.023Z,8.65
2023-01-13T20:44:35.050Z,8.93
2023-01-13T20:49:37.270Z,9.02
2023-01-13T20:54:40.685Z,8.83
2023-01-13T20:59:42.533Z,9.40
2023-01-13T21:04:44.254Z,8.82
2023-01-13T21:09:45.970Z,8.67
2023-01-13T21:15:06.194Z,9.34
2023-01-13T21:20:13.205Z,9.21
2023-01-13T21:25:15.838Z,8.59
2023-01-13T21:30:18.127Z,8.78
2023-01-13T21:35:19.824Z,9.40
2023-01-13T21:40:21.486Z,9.98
2023-01-13T21:45:42.069Z,8.51
2023-01-13T21:50:45.131Z,9.35
2023-01-13T21:55:52.373Z,9.46
2023-01-13T22:00:54.242Z,9.10
2023-01-13T22:05:56.538Z,9.25
2023-01-13T22:10:58.651Z,9.32
2023-01-13T22:16:04.509Z,9.57
2023-01-13T22:21:06.657Z,9.67
2023-01-13T22:26:08.911Z,9.51
2023-01-13T22:31:12.689Z,10.22
2023-01-13T22:36:15.612Z,9.12
2023-01-13T22:41:17.248Z,9.17
2023-01-13T22:46:18.957Z,8.84
2023-01-13T22:51:22.786Z,8.95
2023-01-13T22:56:26.291Z,9.65
2023-01-13T23:01:30.256Z,9.39
2023-01-13T23:06:33.985Z,9.52
2023-01-13T23:11:36.256Z,9.39
2023-01-13T23:16:39.639Z,9.72
2023-01-13T23:21:41.532Z,8.68
2023-01-13T23:26:43.169Z,9.32
2023-01-13T23:31:44.818Z,9.46
2023-01-13T23:36:46.563Z,9.80
2023-01-13T23:41:48.179Z,9.40
2023-01-13T23:46:49.799Z,8.88
2023-01-13T23:51:52.007Z,9.60
2023-01-13T23:56:53.702Z,9.52
